Time;durP1;ratioP1;P1;durP2;ratioP2;P2;SDS_P1;SDS_P2;PMS_P1;PMS_P2;Temp;Humidity;BMP_temperature;BMP_pressure;BME280_temperature;BME280_humidity;BME280_pressure;Samples;Min_cycle;Max_cycle;Signal;HPM_P1;HPM_P2
2022/04/26 03:37:05;;;;;;;;;;;;;;;18.16;45.14;101864.81;4980476;28;19920;-78
2022/04/26 03:39:31;;;;;;;;;;;;;;;18.15;45.18;101864.78;4947505;28;19922;-77
2022/04/26 03:41:56;;;;;;;;;;;;;;;18.14;45.18;101861.31;4980174;28;20005;-78
2022/04/26 03:44:21;;;;;;;;;;;;;;;18.14;45.16;101860.41;4945854;28;20297;-78
2022/04/26 03:46:46;;;;;;;;;;;;;;;18.14;45.04;101865.63;4946897;28;19992;-78
2022/04/26 03:49:12;;;;;;;;;;;;;;;18.13;45.25;101862.16;4962214;28;19926;-78
2022/04/26 03:51:37;;;;;;;;;;;;;;;18.14;45.00;101863.03;4946586;28;20395;-78
2022/04/26 03:54:02;;;;;;;;;;;;;;;18.11;45.20;101865.63;4962396;28;19929;-78
2022/04/26 03:56:27;;;;;;;;;;;;;;;18.13;45.20;101869.13;4946346;28;19925;-78
2022/04/26 03:58:53;;;;;;;;;;;;;;;18.13;45.34;101861.28;4946029;28;19918;-78
2022/04/26 04:01:18;;;;;;;;;;;;;;;18.11;45.25;101860.41;4946147;28;19925;-78
2022/04/26 04:03:43;;;;;;;;;;;;;;;18.11;45.03;101860.41;4961805;28;20021;-78
2022/04/26 04:06:08;;;;;;;;;;;;;;;18.11;45.26;101861.28;4945593;28;19968;-78
2022/04/26 04:08:34;;;;;;;;;;;;;;;18.10;45.20;101864.75;4962364;28;19914;-78
2022/04/26 04:10:59;;;;;;;;;;;;;;;18.11;45.11;101865.63;4947356;28;19919;-78
2022/04/26 04:13:25;;;;;;;;;;;;;;;18.10;45.26;101859.56;4965559;28;19925;-77
2022/04/26 04:15:50;;;;;;;;;;;;;;;18.08;45.23;101866.50;4964631;28;19921;-78
2022/04/26 04:21:00;;;;;;;;;;;;;;;18.08;45.12;101885.59;4982715;28;19953;-78
2022/04/26 04:23:25;;;;;;;;;;;;;;;18.07;45.23;101878.66;4948782;28;19926;-78
2022/04/26 04:25:51;;;;;;;;;;;;;;;18.08;45.22;101887.31;4981722;28;19914;-78
2022/04/26 04:28:16;;;;;;;;;;;;;;;18.08;45.08;101884.72;4963328;28;20288;-78
2022/04/26 04:30:42;;;;;;;;;;;;;;;18.09;45.22;101884.75;4961359;28;20372;-77
2022/04/26 04:33:07;;;;;;;;;;;;;;;18.09;45.19;101887.34;4961205;28;19969;-78
2022/04/26 04:35:32;;;;;;;;;;;;;;;18.08;45.03;101890.78;4947605;28;19942;-77
2022/04/26 04:37:58;;;;;;;;;;;;;;;18.09;45.22;101900.38;4947068;28;19969;-78
2022/04/26 04:40:23;;;;;;;;;;;;;;;18.11;44.98;101895.16;4964124;28;19925;-78
2022/04/26 04:42:48;;;;;;;;;;;;;;;18.10;45.14;101898.63;4948010;28;19918;-78
2022/04/26 04:45:14;;;;;;;;;;;;;;;18.13;45.19;101898.63;4947965;28;19918;-78
2022/04/26 04:47:39;;;;;;;;;;;;;;;18.12;45.10;101901.22;4947873;28;19926;-78
2022/04/26 04:50:04;;;;;;;;;;;;;;;18.12;45.12;101898.63;4962107;28;19918;-78
2022/04/26 04:52:30;;;;;;;;;;;;;;;18.14;45.00;101908.22;4980204;28;19953;-78
2022/04/26 04:54:55;;;;;;;;;;;;;;;18.13;44.82;101906.44;4963639;28;19918;-78
2022/04/26 04:57:20;;;;;;;;;;;;;;;18.14;45.07;101910.81;4946799;28;19922;-78
2022/04/26 04:59:45;;;;;;;;;;;;;;;18.15;44.88;101912.53;4946302;28;20391;-77
2022/04/26 05:02:10;;;;;;;;;;;;;;;18.16;44.85;101919.50;4950502;28;20332;-78
2022/04/26 05:04:36;;;;;;;;;;;;;;;18.19;44.64;101911.69;4963936;28;19922;-77
2022/04/26 05:07:02;;;;;;;;;;;;;;;18.20;44.76;101904.75;4963852;28;19918;-78
2022/04/26 05:09:27;;;;;;;;;;;;;;;18.22;44.65;101910.84;4965543;28;19902;-79
2022/04/26 05:11:52;;;;;;;;;;;;;;;18.29;44.62;101918.69;4963649;28;19918;-78
2022/04/26 05:14:18;;;;;;;;;;;;;;;18.30;44.82;101924.78;4963241;28;19921;-78
2022/04/26 05:16:43;;;;;;;;;;;;;;;18.32;44.56;101919.59;4947450;28;19929;-78
2022/04/26 05:19:08;;;;;;;;;;;;;;;18.29;44.68;101920.41;4964025;28;19918;-78
2022/04/26 05:21:34;;;;;;;;;;;;;;;18.28;44.76;101929.09;4944808;28;19922;-78
2022/04/26 05:26:43;;;;;;;;;;;;;;;18.37;44.17;101930.88;4978889;28;19972;-77
2022/04/26 05:29:08;;;;;;;;;;;;;;;18.55;43.83;101930.09;4945148;28;19922;-77
2022/04/26 05:31:33;;;;;;;;;;;;;;;18.79;43.29;101935.44;4978064;28;19918;-77
2022/04/26 05:33:59;;;;;;;;;;;;;;;19.14;42.49;101936.34;4944317;28;20316;-77
2022/04/26 05:36:24;;;;;;;;;;;;;;;19.35;42.15;101944.22;4977791;28;20004;-77
2022/04/26 05:38:49;;;;;;;;;;;;;;;19.52;41.90;101937.25;4977042;28;19945;-77
2022/04/26 05:41:14;;;;;;;;;;;;;;;19.65;41.71;101939.88;4943894;28;19981;-77
2022/04/26 05:43:40;;;;;;;;;;;;;;;19.73;41.36;101939.03;4958084;28;20292;-77
2022/04/26 05:46:09;;;;;;;;;;;;;;;19.83;41.12;101942.47;4958311;28;19918;-77
2022/04/26 05:48:34;;;;;;;;;;;;;;;19.95;40.70;101944.22;4954393;29;19928;-77
2022/04/26 05:50:59;;;;;;;;;;;;;;;20.04;40.54;101938.97;4954612;29;19922;-76
2022/04/26 05:53:25;;;;;;;;;;;;;;;20.16;40.30;101937.19;4940131;28;19919;-76
2022/04/26 05:55:50;;;;;;;;;;;;;;;20.26;40.01;101946.75;4941965;28;19918;-77
2022/04/26 05:58:15;;;;;;;;;;;;;;;20.34;39.88;101942.38;4941714;28;19918;-77
2022/04/26 06:00:40;;;;;;;;;;;;;;;20.73;38.88;101948.31;4957901;28;19964;-77
2022/04/26 06:03:06;;;;;;;;;;;;;;;20.93;38.34;101940.38;4941831;28;20042;-77
2022/04/26 06:05:31;;;;;;;;;;;;;;;21.15;37.92;101941.97;4941785;28;19940;-77
2022/04/26 06:07:57;;;;;;;;;;;;;;;22.33;35.41;101947.91;4944180;28;19927;-77
2022/04/26 06:10:22;;;;;;;;;;;;;;;23.30;33.49;101941.34;4948316;28;19928;-77
2022/04/26 06:12:48;;;;;;;;;;;;;;;23.52;32.78;101947.13;4981839;28;20005;-77
2022/04/26 06:15:15;;;;;;;;;;;;;;;22.79;34.09;101949.06;4948589;28;19918;-77
2022/04/26 06:17:40;;;;;;;;;;;;;;;21.40;37.07;101962.72;4948272;28;19941;-77
2022/04/26 06:20:06;;;;;;;;;;;;;;;20.85;38.79;101958.72;4964257;28;20361;-77
2022/04/26 06:22:31;;;;;;;;;;;;;;;20.71;38.80;101968.41;4964050;28;19918;-77
2022/04/26 06:24:56;;;;;;;;;;;;;;;20.50;39.48;101974.56;4963894;28;19926;-77
2022/04/26 06:27:22;;;;;;;;;;;;;;;20.76;38.91;101966.63;4947907;28;20360;-77
2022/04/26 06:29:47;;;;;;;;;;;;;;;20.79;38.76;101978.81;4948022;28;20326;-77
2022/04/26 06:32:12;;;;;;;;;;;;;;;20.79;38.84;101973.59;4964016;28;20297;-77
2022/04/26 06:34:38;;;;;;;;;;;;;;;20.60;39.25;101976.31;4948055;28;19943;-77
2022/04/26 06:37:03;;;;;;;;;;;;;;;20.82;38.88;101982.31;4947925;28;20340;-77
2022/04/26 06:39:28;;;;;;;;;;;;;;;20.85;38.89;101979.66;4981202;28;19921;-77
2022/04/26 06:41:54;;;;;;;;;;;;;;;21.05;38.38;101981.28;4963923;28;19918;-77
2022/04/26 06:44:19;;;;;;;;;;;;;;;20.90;38.61;101984.88;4963711;28;19918;-77
2022/04/26 06:46:44;;;;;;;;;;;;;;;21.04;38.37;101985.66;4947693;28;19941;-77
2022/04/26 06:49:10;;;;;;;;;;;;;;;21.10;38.18;101993.50;4963706;28;19922;-77
2022/04/26 06:51:40;;;;;;;;;;;;;;;21.07;38.37;101992.63;4963784;28;19977;-77
2022/04/26 06:54:05;;;;;;;;;;;;;;;21.22;37.90;101989.06;4964711;28;19918;-77
2022/04/26 06:56:34;;;;;;;;;;;;;;;21.31;38.06;101991.59;4964898;28;19936;-77
2022/04/26 06:58:59;;;;;;;;;;;;;;;21.23;37.95;101996.91;4948036;28;20005;-77
2022/04/26 07:01:24;;;;;;;;;;;;;;;21.17;38.17;101997.81;4947710;28;20020;-77
2022/04/26 07:03:50;;;;;;;;;;;;;;;21.31;38.02;101994.22;4963703;28;19918;-77
2022/04/26 07:06:15;;;;;;;;;;;;;;;21.36;37.89;102005.53;4963663;28;19918;-77
2022/04/26 07:08:40;;;;;;;;;;;;;;;21.30;38.11;102001.22;4947749;28;20381;-77
2022/04/26 07:11:06;;;;;;;;;;;;;;;21.27;38.01;102000.34;4963565;28;20017;-77
2022/04/26 07:13:31;;;;;;;;;;;;;;;21.27;38.15;102008.19;4963677;28;20316;-77
2022/04/26 07:15:56;;;;;;;;;;;;;;;21.00;38.57;102002.25;4963709;28;20009;-77
2022/04/26 07:18:22;;;;;;;;;;;;;;;21.10;38.58;102009.19;4963607;28;20428;-77
2022/04/26 07:20:47;;;;;;;;;;;;;;;21.15;38.39;102004.78;4959703;28;19929;-77
2022/04/26 07:23:12;;;;;;;;;;;;;;;21.21;38.40;102008.25;4960554;28;20432;-80
2022/04/26 07:25:39;;;;;;;;;;;;;;;21.19;38.24;102005.66;4960502;28;19922;-77
2022/04/26 07:28:04;;;;;;;;;;;;;;;21.21;38.19;102006.50;4977700;28;19914;-78
2022/04/26 07:30:34;;;;;;;;;;;;;;;21.26;38.38;102007.34;4944403;28;20028;-78
2022/04/26 07:35:52;;;;;;;;;;;;;;;21.30;38.07;102013.44;4963421;28;20010;-78
2022/04/26 07:38:17;;;;;;;;;;;;;;;21.33;38.20;102013.41;4962668;28;19918;-78
2022/04/26 07:40:42;;;;;;;;;;;;;;;21.33;38.17;102011.66;4944260;28;19918;-78
2022/04/26 07:43:08;;;;;;;;;;;;;;;21.36;38.16;102013.38;4944018;28;19922;-77
2022/04/26 07:45:36;;;;;;;;;;;;;;;21.33;38.12;102021.25;4960291;28;19969;-77
2022/04/26 07:48:01;;;;;;;;;;;;;;;21.28;38.12;102029.16;4959867;28;19929;-77
2022/04/26 07:50:28;;;;;;;;;;;;;;;21.15;38.49;102024.88;4944175;28;20021;-77
2022/04/26 07:52:53;;;;;;;;;;;;;;;20.37;40.29;102026.00;4960070;28;19921;-77
2022/04/26 07:55:18;;;;;;;;;;;;;;;20.92;39.18;102032.81;4943923;28;20343;-77
2022/04/26 07:57:43;;;;;;;;;;;;;;;21.06;38.89;102038.88;4943949;28;20420;-77
2022/04/26 08:00:09;;;;;;;;;;;;;;;21.10;38.58;102035.38;4960085;28;19925;-78
2022/04/26 08:02:35;;;;;;;;;;;;;;;21.02;39.04;102042.38;4943818;28;19928;-78
2022/04/26 08:05:01;;;;;;;;;;;;;;;20.99;38.99;102037.19;4959701;28;19925;-77
2022/04/26 08:07:30;;;;;;;;;;;;;;;20.98;38.91;102038.03;4959764;28;19947;-78
2022/04/26 08:09:58;;;;;;;;;;;;;;;20.99;39.04;102051.97;4959526;28;19915;-78
2022/04/26 08:12:23;;;;;;;;;;;;;;;20.91;39.26;102045.03;4943957;28;20005;-78
2022/04/26 08:14:48;;;;;;;;;;;;;;;20.74;39.72;102047.72;4959878;28;20021;-78
2022/04/26 08:17:15;;;;;;;;;;;;;;;20.47;40.27;102050.38;4943847;28;19925;-78
2022/04/26 08:19:40;;;;;;;;;;;;;;;20.12;40.81;102054.81;4977013;28;19937;-77
2022/04/26 08:22:06;;;;;;;;;;;;;;;20.10;41.06;102050.47;4960336;28;20008;-78
2022/04/26 08:27:30;;;;;;;;;;;;;;;20.56;40.21;102058.22;4962913;28;19964;-78
2022/04/26 08:29:56;;;;;;;;;;;;;;;20.32;40.56;102062.63;4946183;28;20009;-78
2022/04/26 08:32:28;;;;;;;;;;;;;;;20.17;40.86;102072.25;4944131;28;20300;-78
2022/04/26 08:34:54;;;;;;;;;;;;;;;20.32;40.58;102073.06;4960250;28;19942;-78
2022/04/26 08:37:20;;;;;;;;;;;;;;;20.41;40.53;102072.19;4959860;28;20004;-78
2022/04/26 08:39:46;;;;;;;;;;;;;;;20.45;40.25;102076.56;4976970;28;20364;-78
2022/04/26 08:42:11;;;;;;;;;;;;;;;20.32;40.55;102080.94;4959901;28;19918;-78
2022/04/26 08:44:38;;;;;;;;;;;;;;;20.03;41.12;102088.75;4977370;28;19930;-78
2022/04/26 08:52:45;;;;;;;;;;;;;;;20.13;40.86;102093.13;4978148;28;19997;-78
2022/04/26 08:55:10;;;;;;;;;;;;;;;20.20;40.91;102091.38;4977484;28;19914;-77
2022/04/26 08:57:36;;;;;;;;;;;;;;;20.20;40.65;102094.00;4960098;28;19914;-78
2022/04/26 09:00:05;;;;;;;;;;;;;;;20.19;40.81;102087.03;4960098;28;19925;-78
2022/04/26 09:02:30;;;;;;;;;;;;;;;20.19;40.77;102091.41;4944019;28;19925;-78
2022/04/26 09:05:00;;;;;;;;;;;;;;;20.10;40.92;102094.88;4959473;28;19918;-79
2022/04/26 09:07:29;;;;;;;;;;;;;;;20.09;41.11;102096.59;4959418;28;19914;-78
2022/04/26 09:10:08;;;;;;;;;;;;;;;20.08;41.17;102107.09;4976582;28;19914;-78
2022/04/26 09:12:52;;;;;;;;;;;;;;;20.06;41.17;102100.97;4976325;28;19914;-78
2022/04/26 09:15:17;;;;;;;;;;;;;;;20.01;41.14;102106.22;4959335;28;19953;-78
2022/04/26 09:17:43;;;;;;;;;;;;;;;19.98;41.28;102102.72;4959117;28;20121;-77
2022/04/26 09:20:09;;;;;;;;;;;;;;;19.97;41.31;102099.25;4958896;28;19922;-77
2022/04/26 09:22:34;;;;;;;;;;;;;;;19.93;41.22;102105.31;4942843;28;19924;-77
2022/04/26 09:24:59;;;;;;;;;;;;;;;19.90;41.33;102106.19;4975998;28;20268;-76
2022/04/26 09:27:25;;;;;;;;;;;;;;;19.90;41.34;102108.81;4976354;28;19914;-77
2022/04/26 09:29:50;;;;;;;;;;;;;;;19.86;41.57;102100.94;4959225;28;19918;-77
2022/04/26 09:32:15;;;;;;;;;;;;;;;19.82;41.79;102107.94;4959124;28;19914;-77
2022/04/26 09:34:41;;;;;;;;;;;;;;;19.78;41.71;102100.94;4948603;28;19918;-77
2022/04/26 09:37:06;;;;;;;;;;;;;;;19.77;41.76;102111.38;4966462;28;19914;-78
2022/04/26 09:39:31;;;;;;;;;;;;;;;19.74;41.85;102109.66;4963814;28;20262;-77
2022/04/26 09:41:57;;;;;;;;;;;;;;;19.71;42.08;102107.91;4977871;28;19922;-77
2022/04/26 09:44:32;;;;;;;;;;;;;;;19.70;41.97;102107.91;4943703;28;19929;-76
2022/04/26 09:46:58;;;;;;;;;;;;;;;19.66;42.26;102103.50;4977539;28;19915;-77
2022/04/26 09:49:24;;;;;;;;;;;;;;;19.64;42.12;102111.34;4959983;28;19929;-77
2022/04/26 09:51:59;;;;;;;;;;;;;;;19.61;42.22;102113.94;4959996;28;19921;-77
2022/04/26 09:54:24;;;;;;;;;;;;;;;19.62;42.22;102122.63;4959413;28;20421;-77
2022/04/26 09:56:50;;;;;;;;;;;;;;;19.58;42.29;102107.88;4942955;28;19957;-76
2022/04/26 09:59:28;;;;;;;;;;;;;;;19.55;42.37;102120.88;4983287;28;19914;-83
2022/04/26 10:01:55;;;;;;;;;;;;;;;19.51;42.48;102115.66;4976101;28;19914;-83
2022/04/26 10:04:21;;;;;;;;;;;;;;;19.52;42.39;102117.41;4960690;28;19929;-83
2022/04/26 10:06:49;;;;;;;;;;;;;;;19.50;42.44;102116.53;4975195;28;19914;-83
2022/04/26 10:09:15;;;;;;;;;;;;;;;19.51;42.51;102118.28;4975688;28;20365;-83
2022/04/26 10:11:40;;;;;;;;;;;;;;;19.48;42.35;102112.16;4959449;28;19926;-84
2022/04/26 10:14:06;;;;;;;;;;;;;;;19.51;42.47;102120.91;4974331;28;19991;-83
2022/04/26 10:16:32;;;;;;;;;;;;;;;19.53;42.37;102123.47;4975051;28;19921;-83
2022/04/26 10:19:02;;;;;;;;;;;;;;;19.52;42.45;102119.16;4976173;28;19922;-84
2022/04/26 10:21:27;;;;;;;;;;;;;;;19.53;42.30;102126.09;4976712;28;19914;-84
2022/04/26 10:23:56;;;;;;;;;;;;;;;19.53;42.20;102120.88;4993716;28;19918;-83
2022/04/26 10:26:25;;;;;;;;;;;;;;;19.51;42.28;102131.34;4992548;28;19921;-82
2022/04/26 10:28:52;;;;;;;;;;;;;;;19.51;42.07;102125.22;4962299;28;19961;-83
2022/04/26 10:31:18;;;;;;;;;;;;;;;19.50;42.10;102124.34;4996913;28;19925;-83
2022/04/26 10:33:46;;;;;;;;;;;;;;;19.50;42.14;102123.50;4978022;28;19914;-82
2022/04/26 10:36:27;;;;;;;;;;;;;;;19.47;42.35;102126.97;4993471;28;19918;-84
2022/04/26 10:39:13;;;;;;;;;;;;;;;19.46;42.21;102135.66;4975282;28;19997;-83
2022/04/26 10:41:42;;;;;;;;;;;;;;;19.50;42.01;102129.56;4992513;28;20006;-83
2022/04/26 10:44:13;;;;;;;;;;;;;;;19.52;42.01;102132.19;4993085;28;19981;-84
2022/04/26 10:46:39;;;;;;;;;;;;;;;19.55;41.91;102126.97;4975443;28;19921;-84
2022/04/26 10:49:26;;;;;;;;;;;;;;;19.53;41.92;102133.94;4993276;28;19922;-83
2022/04/26 10:51:52;;;;;;;;;;;;;;;19.53;41.87;102146.97;4975566;28;19949;-84
2022/04/26 10:54:36;;;;;;;;;;;;;;;19.51;41.93;102143.50;4975522;28;20007;-84
2022/04/26 10:57:01;;;;;;;;;;;;;;;19.50;41.72;102141.78;4979109;28;19914;-83
2022/04/26 10:59:27;;;;;;;;;;;;;;;19.49;41.72;102148.72;4978868;28;19918;-84
2022/04/26 11:01:52;;;;;;;;;;;;;;;19.48;41.78;102149.59;4980015;28;20371;-84
2022/04/26 11:04:18;;;;;;;;;;;;;;;19.49;41.80;102153.97;4963188;28;19922;-84
2022/04/26 11:06:43;;;;;;;;;;;;;;;19.50;41.77;102153.06;4978805;28;19926;-83
2022/04/26 11:09:10;;;;;;;;;;;;;;;19.53;41.57;102158.31;4976493;28;19918;-84
2022/04/26 11:11:48;;;;;;;;;;;;;;;19.58;41.66;102154.88;4979687;28;19925;-83
2022/04/26 11:14:14;;;;;;;;;;;;;;;19.61;41.47;102158.34;4979166;28;19937;-83
2022/04/26 11:16:56;;;;;;;;;;;;;;;19.60;41.51;102154.00;4979113;28;19914;-83
2022/04/26 11:19:28;;;;;;;;;;;;;;;19.59;41.52;102160.06;4996072;28;19921;-83
2022/04/26 11:21:54;;;;;;;;;;;;;;;19.60;41.57;102161.81;4978693;28;20289;-83
2022/04/26 11:29:52;;;;;;;;;;;;;;;19.53;41.57;102155.72;4997312;28;19981;-84
2022/04/26 11:32:27;;;;;;;;;;;;;;;19.51;41.72;102160.06;4996278;28;19917;-83
2022/04/26 11:34:53;;;;;;;;;;;;;;;19.49;41.71;102161.78;4977911;28;20365;-84
2022/04/26 11:37:18;;;;;;;;;;;;;;;19.47;41.81;102163.53;4972980;28;19914;-77
2022/04/26 11:39:43;;;;;;;;;;;;;;;19.49;41.82;102163.53;4961378;28;19918;-77
2022/04/26 11:42:09;;;;;;;;;;;;;;;19.48;41.63;102167.84;4945231;28;20387;-77
2022/04/26 11:44:35;;;;;;;;;;;;;;;19.48;41.65;102161.78;4944973;28;19973;-77
2022/04/26 11:47:00;;;;;;;;;;;;;;;19.49;41.72;102160.94;4960936;28;19922;-77
2022/04/26 11:49:40;;;;;;;;;;;;;;;19.48;41.63;102165.25;4960560;28;19926;-76
2022/04/26 11:52:06;;;;;;;;;;;;;;;19.49;41.50;102169.63;4961055;28;19965;-78
2022/04/26 11:54:38;;;;;;;;;;;;;;;19.49;41.62;102171.38;4960773;28;19969;-77
2022/04/26 11:57:04;;;;;;;;;;;;;;;19.49;41.49;102172.22;4960967;28;19918;-78
2022/04/26 11:59:29;;;;;;;;;;;;;;;19.49;41.54;102174.84;4960479;28;20432;-78
2022/04/26 12:01:55;;;;;;;;;;;;;;;19.50;41.44;102175.72;4978186;28;19922;-78
2022/04/26 12:04:20;;;;;;;;;;;;;;;19.54;41.30;102187.91;4960685;28;19918;-77
2022/04/26 12:06:46;;;;;;;;;;;;;;;19.52;41.40;102179.19;4960200;28;19921;-77
2022/04/26 12:09:14;;;;;;;;;;;;;;;19.54;41.56;102187.91;4977814;28;19927;-78
2022/04/26 12:11:41;;;;;;;;;;;;;;;19.57;41.92;102192.25;4960628;28;19914;-77
2022/04/26 12:14:07;;;;;;;;;;;;;;;19.59;42.14;102195.75;4961265;28;19914;-77
2022/04/26 12:16:37;;;;;;;;;;;;;;;19.57;42.03;102198.34;4981537;28;19915;-77
2022/04/26 12:19:05;;;;;;;;;;;;;;;19.60;42.02;102189.66;4965799;28;20379;-77
2022/04/26 12:21:47;;;;;;;;;;;;;;;19.61;42.24;102201.88;4966840;28;19921;-77
2022/04/26 12:24:13;;;;;;;;;;;;;;;19.60;41.88;102190.56;4966533;28;19918;-77
2022/04/26 12:27:08;;;;;;;;;;;;;;;19.60;41.96;102200.09;4966797;28;19921;-77
2022/04/26 12:29:36;;;;;;;;;;;;;;;19.60;41.82;102202.72;4943066;28;19921;-78
2022/04/26 12:32:04;;;;;;;;;;;;;;;19.60;41.98;102197.50;4964209;28;20292;-77
2022/04/26 12:34:30;;;;;;;;;;;;;;;19.58;41.86;102201.88;4964195;28;19930;-77
2022/04/26 12:36:58;;;;;;;;;;;;;;;19.59;41.79;102203.59;4962382;28;19918;-77
2022/04/26 12:39:25;;;;;;;;;;;;;;;19.59;41.65;102207.06;4961774;28;19914;-77
2022/04/26 12:41:51;;;;;;;;;;;;;;;19.58;41.81;102199.25;4960900;28;19921;-77
2022/04/26 12:44:17;;;;;;;;;;;;;;;19.60;41.87;102207.94;4960644;28;19961;-77
2022/04/26 12:52:37;;;;;;;;;;;;;;;19.58;41.89;102209.69;4976971;28;19921;-77
2022/04/26 12:55:02;;;;;;;;;;;;;;;19.57;42.01;102215.75;4943621;28;19918;-78
2022/04/26 12:57:27;;;;;;;;;;;;;;;19.57;41.89;102211.41;4943335;28;20376;-78
2022/04/26 12:59:53;;;;;;;;;;;;;;;19.59;41.74;102220.13;4959394;28;20370;-78
2022/04/26 13:02:18;;;;;;;;;;;;;;;19.61;41.92;102218.41;4959139;28;20317;-77
2022/04/26 13:04:43;;;;;;;;;;;;;;;19.58;41.83;102223.63;4959013;28;19923;-77
2022/04/26 13:07:08;;;;;;;;;;;;;;;19.59;41.99;102220.13;4959051;28;20277;-77
2022/04/26 13:09:34;;;;;;;;;;;;;;;19.58;41.95;102223.63;4943044;28;19940;-77
2022/04/26 13:11:59;;;;;;;;;;;;;;;19.58;42.04;102220.13;4942915;28;20328;-79
2022/04/26 13:14:26;;;;;;;;;;;;;;;19.57;41.83;102219.25;4942901;28;20329;-78
2022/04/26 13:16:52;;;;;;;;;;;;;;;19.60;41.93;102218.38;4943273;28;19925;-77
2022/04/26 13:19:17;;;;;;;;;;;;;;;19.60;41.92;102221.00;4977544;28;19914;-78
2022/04/26 13:21:42;;;;;;;;;;;;;;;19.59;41.78;102220.13;4944520;28;19918;-77
2022/04/26 13:24:07;;;;;;;;;;;;;;;19.61;41.93;102218.41;4959489;28;19933;-76
2022/04/26 13:26:35;;;;;;;;;;;;;;;19.60;41.96;102213.16;4959206;28;19918;-77
2022/04/26 13:29:00;;;;;;;;;;;;;;;19.59;41.98;102214.03;4959216;28;20365;-78
2022/04/26 13:31:25;;;;;;;;;;;;;;;19.59;41.99;102216.66;4958804;28;19929;-78
2022/04/26 13:33:51;;;;;;;;;;;;;;;19.59;41.95;102212.28;4942776;28;20428;-77
2022/04/26 13:36:17;;;;;;;;;;;;;;;19.60;42.01;102206.22;4959354;28;20309;-77
2022/04/26 13:38:42;;;;;;;;;;;;;;;19.61;41.88;102202.72;4959573;28;19977;-77
2022/04/26 13:41:07;;;;;;;;;;;;;;;19.62;42.09;102216.66;4944359;28;19967;-77
2022/04/26 13:43:33;;;;;;;;;;;;;;;19.64;42.15;102207.97;4976625;28;19919;-77
2022/04/26 13:45:58;;;;;;;;;;;;;;;19.64;42.10;102210.59;4943088;28;19925;-77
2022/04/26 13:48:23;;;;;;;;;;;;;;;19.64;42.05;102213.19;4958660;28;19922;-77
2022/04/26 13:50:50;;;;;;;;;;;;;;;19.63;41.94;102208.81;4959115;28;19914;-77
2022/04/26 13:53:15;;;;;;;;;;;;;;;19.65;42.00;102203.63;4958992;28;19968;-77
2022/04/26 13:55:40;;;;;;;;;;;;;;;19.64;41.92;102210.59;4958530;28;20012;-77
2022/04/26 13:58:08;;;;;;;;;;;;;;;19.66;41.68;102213.19;4942915;28;20004;-77
2022/04/26 14:00:35;;;;;;;;;;;;;;;19.65;41.82;102209.72;4942737;28;19968;-77
2022/04/26 14:03:00;;;;;;;;;;;;;;;19.65;41.61;102211.47;4942442;28;19922;-77
2022/04/26 14:05:27;;;;;;;;;;;;;;;19.64;41.55;102207.97;4958289;28;19921;-77
2022/04/26 14:07:52;;;;;;;;;;;;;;;19.64;41.27;102207.09;4975658;28;20373;-77
2022/04/26 14:10:18;;;;;;;;;;;;;;;19.64;41.51;102207.97;4958341;28;19961;-77
2022/04/26 14:12:43;;;;;;;;;;;;;;;19.64;41.42;102213.19;4975846;28;19914;-77
2022/04/26 14:23:20;;;;;;;;;;;;;;;19.66;41.04;102207.97;4961682;28;19969;-77
2022/04/26 14:25:45;;;;;;;;;;;;;;;19.64;41.02;102210.59;4958666;28;19922;-76
2022/04/26 14:28:11;;;;;;;;;;;;;;;19.64;41.08;102205.38;4943112;28;20329;-77
2022/04/26 14:30:36;;;;;;;;;;;;;;;19.66;40.87;102208.84;4962247;28;19914;-77
2022/04/26 14:33:01;;;;;;;;;;;;;;;19.64;41.09;102209.69;4962502;28;20353;-77
2022/04/26 14:35:29;;;;;;;;;;;;;;;19.64;40.66;102210.59;4946369;28;19918;-77
2022/04/26 14:37:54;;;;;;;;;;;;;;;19.64;40.97;102213.19;4963172;28;20381;-76
2022/04/26 14:40:20;;;;;;;;;;;;;;;19.64;40.78;102197.53;4946727;28;19925;-76
2022/04/26 14:42:46;;;;;;;;;;;;;;;19.64;40.72;102207.09;4946690;28;19918;-77
2022/04/26 14:45:12;;;;;;;;;;;;;;;19.64;40.65;102201.84;4962197;28;19922;-77
2022/04/26 14:47:37;;;;;;;;;;;;;;;19.62;40.45;102206.19;4962148;28;20273;-76
2022/04/26 14:50:04;;;;;;;;;;;;;;;19.60;40.44;102206.22;4946085;28;19926;-76
2022/04/26 14:52:30;;;;;;;;;;;;;;;19.61;40.75;102218.41;4962213;28;19925;-76
2022/04/26 14:54:57;;;;;;;;;;;;;;;19.60;40.58;102214.06;4979605;28;19914;-76
2022/04/26 14:57:22;;;;;;;;;;;;;;;19.61;40.62;102220.13;4945681;28;20396;-76
2022/04/26 14:59:48;;;;;;;;;;;;;;;19.60;40.28;102214.06;4964107;28;19918;-75
2022/04/26 15:02:14;;;;;;;;;;;;;;;19.62;40.47;102214.03;4968030;28;19962;-77
2022/04/26 15:04:40;;;;;;;;;;;;;;;19.62;40.36;102211.44;4985853;28;19918;-76
2022/04/26 15:07:05;;;;;;;;;;;;;;;19.61;40.40;102200.13;4968399;28;19914;-76
2022/04/26 15:09:43;;;;;;;;;;;;;;;19.61;40.44;102200.13;4948286;28;19918;-74
2022/04/26 15:17:36;;;;;;;;;;;;;;;19.62;40.32;102199.25;4965612;28;19925;-76
2022/04/26 15:20:03;;;;;;;;;;;;;;;19.63;40.38;102203.59;4963044;28;19918;-76
2022/04/26 15:22:28;;;;;;;;;;;;;;;19.65;40.21;102203.63;4946806;28;19930;-77
2022/04/26 15:24:54;;;;;;;;;;;;;;;19.66;40.23;102192.28;4978477;28;19918;-77
2022/04/26 15:27:19;;;;;;;;;;;;;;;19.68;40.09;102195.78;4961692;28;19987;-76
2022/04/26 15:29:45;;;;;;;;;;;;;;;19.67;40.12;102197.53;4961403;28;19914;-76
2022/04/26 15:32:11;;;;;;;;;;;;;;;19.67;40.10;102196.66;4978530;28;20423;-76
2022/04/26 15:34:37;;;;;;;;;;;;;;;19.67;40.08;102205.38;4961169;28;19914;-76
2022/04/26 15:37:02;;;;;;;;;;;;;;;19.68;40.11;102201.00;4978505;28;20384;-77
2022/04/26 15:39:28;;;;;;;;;;;;;;;19.68;39.97;102209.72;4961107;28;19922;-77
2022/04/26 15:41:57;;;;;;;;;;;;;;;19.66;40.04;102213.19;4959856;28;19918;-76
2022/04/26 15:44:22;;;;;;;;;;;;;;;19.65;40.09;102206.22;4978121;28;19953;-76
2022/04/26 15:46:49;;;;;;;;;;;;;;;19.64;39.91;102218.44;4960649;28;20285;-76
2022/04/26 15:49:18;;;;;;;;;;;;;;;19.63;39.97;102211.44;4944905;28;19926;-76
2022/04/26 15:51:44;;;;;;;;;;;;;;;19.64;40.06;102222.75;4960563;28;19921;-76
2022/04/26 15:54:09;;;;;;;;;;;;;;;19.64;39.90;102212.31;4960578;28;19922;-76
2022/04/26 15:56:34;;;;;;;;;;;;;;;19.64;40.01;102222.75;4960429;28;19914;-76
2022/04/26 15:59:01;;;;;;;;;;;;;;;19.63;40.00;102224.50;4944431;28;20365;-76
2022/04/26 16:01:26;;;;;;;;;;;;;;;19.63;40.00;102213.19;4960237;28;19914;-76
2022/04/26 16:03:52;;;;;;;;;;;;;;;19.65;39.88;102224.50;4978425;28;20057;-76
2022/04/26 16:06:18;;;;;;;;;;;;;;;19.65;39.98;102225.38;4961033;28;19922;-75
2022/04/26 16:08:44;;;;;;;;;;;;;;;19.66;40.07;102223.63;4978465;28;19922;-76
2022/04/26 16:22:06;;;;;;;;;;;;;;;19.66;40.45;102228.84;4963436;28;19925;-76
2022/04/26 16:24:38;;;;;;;;;;;;;;;19.66;40.59;102234.06;4960411;28;20292;-76
2022/04/26 16:27:04;;;;;;;;;;;;;;;19.65;40.67;102230.59;4960719;28;19921;-76
2022/04/26 16:29:29;;;;;;;;;;;;;;;19.64;40.67;102241.03;4960893;28;19918;-76
2022/04/26 16:31:54;;;;;;;;;;;;;;;19.63;40.59;102234.94;4962016;28;19988;-76
2022/04/26 16:34:20;;;;;;;;;;;;;;;19.62;40.74;102238.44;4961306;28;19925;-77
2022/04/26 16:36:46;;;;;;;;;;;;;;;19.62;40.66;102237.53;4960548;28;19918;-77
2022/04/26 16:39:11;;;;;;;;;;;;;;;19.61;40.99;102243.66;4961350;28;19921;-76
2022/04/26 16:41:37;;;;;;;;;;;;;;;19.60;40.83;102250.59;4946116;28;19925;-76
2022/04/26 16:44:02;;;;;;;;;;;;;;;19.59;40.87;102238.41;4962770;28;20396;-76
2022/04/26 16:46:30;;;;;;;;;;;;;;;19.60;40.97;102239.28;4962863;28;19914;-76
2022/04/26 16:48:55;;;;;;;;;;;;;;;19.60;40.93;102249.72;4946619;28;19933;-77
2022/04/26 16:51:22;;;;;;;;;;;;;;;19.58;41.01;102247.13;4977718;28;19918;-76
2022/04/26 16:53:48;;;;;;;;;;;;;;;19.59;41.09;102251.47;4978489;28;19914;-77
2022/04/26 16:56:13;;;;;;;;;;;;;;;19.59;40.99;102253.22;4961773;28;19921;-76
2022/04/26 16:58:38;;;;;;;;;;;;;;;19.59;41.02;102247.97;4945252;28;20376;-76
2022/04/26 17:01:04;;;;;;;;;;;;;;;19.58;41.01;102252.34;4944920;28;19910;-76